Disclaimer

Please do not use the information listed here in-flight or in-navigation, as they are not provided to us by the airports but are provided by volunteers, so they might be outdated.

Search


Regions


Airport information page

Radio informations:
Common traffic adv. frequency (CTAF) - 122.9 MHz
FALEOLO APP/DEP - 126.9 MHz

Airport informations:
Latitude: 14° 19' 51.60" S
Longitude: 170° 42' 37.80" W
Elevation: 32 feet - 10 meters
Operating hours: N/A
Operating agency: Civil government, landing fees and diplomatic clearance may be required
Timezone: UTC-11
Fuel: Jet A1+, Jet A1 with icing inhibitor.

JP-8, SemiKeroscene MIL Spec T-83133, without icing inhibitor

100/130 octane gasoline, leaded, MIL-L-5572F (GREEN)

Runway information:
05/23 - 10000 x 150 feet< - >3048 x 46 meters
08/26 - 3800 x 100 feet< - >1158 x 30 meters

Recent METARs:
NSTU 141550Z VRB04KT 10SM FEW022 SCT100 27/25 A2976 RMK SLP078 T02730245
NSTU 141650Z VRB02KT 12SM FEW022 FEW100 SCT240 26/24 A2979 RMK SLP088 T02600238
NSTU 141650Z VRB02KT 12SM FEW022 FEW100 SCT240 26/24 A2979 RMK SLP088 T02600238

Airport on the map: